Latest Weather Observations for Ballarat

IDV60801

Issued at 5:02 pm EDT Wednesday 22 February 2017 (issued every 30 minutes, with the page automatically refreshed every 10 minutes)

About weather observations | Map of weather stations | Latest weather observations for VIC | Other Formats
Station Details ID: 089002 Name: BALLARAT AERODROME Lat: -37.51 Lon: 143.79 Height: 435.2 m
Data from the previous 72 hours. | See also: Recent months at Ballarat
Date/Time
EDT
Temp
°C
App
Temp
°C
Dew
Point
°C
Rel
Hum
%
Delta-T
°C
Wind Press
QNH
hPa
Press
MSL
hPa
Rain since
9am
mm
Dir  Spd
km/h
Gust
km/h
Spd
kts
Gust
kts
22/04:54pm 31.2 21.9 0.6 14 15.2 N 39 57 21 31 1010.0 1008.6 0.0
22/04:30pm 30.3 20.0 -1.2 13 15.1 N 43 59 23 32 1010.1 1008.7 0.0
22/04:00pm 30.2 19.9 -1.2 13 15.0 N 43 63 23 34 1010.6 1009.2 0.0
22/03:34pm 30.2 21.2 -0.2 14 14.8 N 37 57 20 31 1011.4 1010.0 0.0
22/03:30pm 30.0 20.5 -0.4 14 14.7 N 39 56 21 30 1011.6 1010.2 0.0
22/03:05pm 29.9 19.6 0.5 15 14.4 N 44 67 24 36 1011.5 1010.1 0.0
22/03:00pm 29.0 18.8 -0.2 15 14.1 N 43 57 23 31 1011.5 1010.1 0.0
22/02:30pm 28.4 18.0 1.8 18 13.2 N 46 59 25 32 1011.9 1010.5 0.0
22/02:00pm 28.3 18.7 0.9 17 13.4 N 41 54 22 29 1012.1 1010.7 0.0
22/01:30pm 27.8 17.9 2.8 20 12.6 N 44 56 24 30 1012.6 1011.2 0.0
22/01:00pm 27.1 17.3 2.2 20 12.4 N 43 57 23 31 1013.8 1012.4 0.0
22/12:30pm 26.0 16.2 2.0 21 11.8 N 43 61 23 33 1014.0 1012.6 0.0
22/12:00pm 24.8 15.1 2.9 24 10.8 N 43 56 23 30 1014.4 1013.0 0.0
22/11:30am 24.3 15.3 2.5 24 10.7 N 39 54 21 29 1014.8 1013.4 0.0
22/11:00am 23.2 13.9 2.7 26 10.0 N 41 54 22 29 1015.4 1014.1 0.0
22/10:30am 22.7 14.3 3.8 29 9.4 N 37 48 20 26 1015.7 1014.3 0.0
22/10:00am 21.2 12.7 3.4 31 8.7 N 37 57 20 31 1015.8 1014.4 0.0
22/09:59am 21.2 13.1 3.0 30 8.8 N 35 57 19 31 1015.9 1014.5 0.0
22/09:30am 20.5 13.4 3.7 33 8.2 N 30 39 16 21 1016.0 1014.6 0.0
22/09:27am 20.2 13.5 3.9 34 8.0 N 28 39 15 21 1016.0 1014.6 0.0
22/09:00am 17.5 13.4 6.1 47 5.7 NNW 17 20 9 11 1016.0 1014.6 0.0
22/08:30am 17.1 11.7 4.4 43 6.1 N 22 30 12 16 1015.9 1014.5 0.0
22/08:00am 15.5 10.6 5.1 50 5.0 NNE 20 26 11 14 1015.9 1014.5 0.0
22/07:30am 12.7 9.1 4.9 59 3.7 N 13 17 7 9 1015.7 1014.3 0.0
22/07:00am 11.5 7.1 4.9 64 3.1 N 17 20 9 11 1015.5 1014.2 0.0
22/06:30am 10.3 6.2 4.2 66 2.8 N 15 20 8 11 1015.5 1014.2 0.0
22/06:00am 9.8 5.7 4.6 70 2.4 NNW 15 19 8 10 1015.2 1013.8 0.0
22/05:30am 10.0 8.8 4.4 68 2.6 CALM 0 0 0 0 1015.3 1014.0 0.0
22/05:00am 10.7 9.3 3.5 61 3.2 CALM 0 0 0 0 1015.4 1014.1 0.0
22/04:30am 11.8 10.4 3.6 57 3.7 CALM 0 4 0 2 1016.0 1014.6 0.0
22/04:00am 11.8 8.4 3.8 58 3.7 NNE 11 13 6 7 1016.2 1014.8 0.0
22/03:30am 13.0 8.8 3.9 54 4.2 NNE 15 17 8 9 1016.4 1015.0 0.0
22/03:00am 10.8 7.4 3.8 62 3.2 NNE 11 13 6 7 1016.6 1015.2 0.0
22/02:30am 11.8 9.1 3.6 57 3.7 N 7 11 4 6 1016.9 1015.5 0.0
22/02:00am 12.4 9.8 3.1 53 4.2 N 6 7 3 4 1017.3 1016.0 0.0
22/01:30am 13.3 9.5 3.9 53 4.4 NE 13 17 7 9 1017.7 1016.4 0.0
22/01:00am 11.5 8.2 4.7 63 3.2 NE 11 15 6 8 1018.0 1016.7 0.0
22/12:30am 11.4 9.1 5.7 68 2.7 E 7 9 4 5 1018.4 1017.0 0.0
22/12:00am 12.5 10.2 5.9 64 3.2 ESE 7 9 4 5 1018.8 1017.4 0.0
 
Date/Time
EDT
Temp
°C
App
Temp
°C
Dew
Point
°C
Rel
Hum
%
Delta-T
°C
Wind Press
QNH
hPa
Press
MSL
hPa
Rain since
9am
mm
Dir  Spd
km/h
Gust
km/h
Spd
kts
Gust
kts
21/11:30pm 12.4 10.3 6.7 68 2.8 ESE 7 9 4 5 1018.9 1017.5 0.0
21/11:00pm 13.2 10.3 6.5 64 3.3 ESE 11 11 6 6 1018.9 1017.5 0.0
21/10:30pm 13.3 10.5 5.2 58 3.9 ESE 9 11 5 6 1019.0 1017.6 0.0
21/10:00pm 14.2 11.4 3.4 48 5.0 ESE 7 9 4 5 1018.8 1017.4 0.0
21/09:30pm 15.5 12.1 2.0 40 6.1 NE 9 9 5 5 1018.7 1017.3 0.0
21/09:00pm 15.5 12.1 2.0 40 6.1 NE 9 11 5 6 1018.4 1017.0 0.0
21/08:30pm 18.8 14.9 1.3 31 8.0 NNE 11 15 6 8 1018.2 1016.8 0.0
21/08:00pm 18.7 14.6 2.5 34 7.6 N 13 17 7 9 1018.0 1016.7 0.0
21/07:30pm 20.4 16.0 2.7 31 8.5 N 15 22 8 12 1017.9 1016.6 0.0
21/07:00pm 22.2 17.9 0.7 24 10.0 NNE 13 20 7 11 1017.8 1016.5 0.0
21/06:30pm 22.3 18.0 0.8 24 10.1 N 13 19 7 10 1018.0 1016.7 0.0
21/06:00pm 23.1 19.5 3.1 27 9.8 N 11 20 6 11 1018.0 1016.7 0.0
21/05:30pm 22.8 19.1 2.3 26 9.9 NNE 11 20 6 11 1018.2 1016.8 0.0
21/05:00pm 22.9 19.7 2.9 27 9.8 NE 9 22 5 12 1018.4 1017.0 0.0
21/04:30pm 22.3 19.2 1.3 25 9.9 E 7 15 4 8 1018.8 1017.4 0.0
21/04:00pm 21.6 17.8 1.8 27 9.4 S 11 17 6 9 1019.1 1017.7 0.0
21/03:30pm 21.6 18.1 1.3 26 9.5 N 9 17 5 9 1019.3 1018.0 0.0
21/03:00pm 21.1 18.2 2.4 29 8.9 N 7 15 4 8 1019.7 1018.4 0.0
21/02:30pm 20.6 17.9 2.9 31 8.5 SSE 6 11 3 6 1020.1 1018.8 0.0
21/02:00pm 20.0 15.9 -0.1 26 9.0 WNW 11 20 6 11 1020.3 1019.0 0.0
21/01:30pm 19.3 16.2 1.3 30 8.3 WNW 7 19 4 10 1020.8 1019.4 0.0
21/01:00pm 18.5 15.1 1.9 33 7.7 SW 9 17 5 9 1020.8 1019.4 0.0
21/12:30pm 18.5 15.8 3.9 38 7.1 E 7 15 4 8 1021.3 1019.9 0.0
21/12:00pm 17.4 15.0 4.4 42 6.3 WNW 6 15 3 8 1021.7 1020.4 0.0
21/11:30am 16.4 13.9 3.8 43 6.0 S 6 9 3 5 1021.8 1020.5 0.0
21/11:00am 15.7 12.8 4.7 48 5.3 SE 9 13 5 7 1021.7 1020.4 0.0
21/10:30am 14.9 12.8 6.5 57 4.2 SE 7 13 4 7 1021.7 1020.4 0.0
21/10:00am 13.7 11.7 8.5 71 2.7 SE 9 13 5 7 1021.9 1020.6 0.0
21/09:30am 12.7 11.0 9.7 82 1.6 SSE 9 13 5 7 1021.9 1020.6 0.0
21/09:00am 11.3 9.9 11.0 98 0.2 SSE 9 11 5 6 1021.6 1020.3 0.0
21/08:30am 9.4 9.3 9.4 100 0.0 CALM 0 0 0 0 1021.2 1019.8 0.0
21/08:00am 6.7 5.9 6.7 100 0.0 CALM 0 0 0 0 1020.9 1019.5 0.0
21/07:30am 3.7 2.3 3.7 100 0.0 CALM 0 0 0 0 1020.7 1019.3 0.0
21/07:16am 3.8 2.4 3.8 100 0.0 CALM 0 0 0 0 1020.6 1019.2 0.0
21/07:00am 3.6 2.2 3.6 100 0.0 CALM 0 0 0 0 1020.2 1018.9 0.0
21/06:30am 3.6 2.2 3.6 100 0.0 CALM 0 0 0 0 1019.8 1018.5 0.0
21/06:26am 3.5 2.1 3.5 100 0.0 CALM 0 0 0 0 1019.8 1018.5 0.0
21/06:00am 5.0 2.7 5.0 100 0.0 SSE 6 7 3 4 1019.5 1018.2 0.0
21/05:30am 4.9 2.4 4.9 100 0.0 ESE 7 7 4 4 1019.2 1017.8 0.0
21/05:12am 4.5 2.0 4.5 100 0.0 SE 7 7 4 4 1019.2 1017.8 0.0
21/05:00am 3.8 1.3 3.7 99 0.0 E 6 7 3 4 1019.3 1018.0 0.0
21/04:51am 3.4 0.8 3.3 99 0.0 SE 6 7 3 4 1019.2 1017.8 0.0
21/04:30am 5.1 3.2 5.1 100 0.0 SE 4 7 2 4 1019.2 1017.8 0.0
21/04:00am 5.2 2.8 5.1 99 0.0 SE 7 9 4 5 1019.2 1017.8 0.0
21/03:30am 4.3 1.3 4.2 99 0.0 E 9 13 5 7 1019.2 1017.8 0.0
21/03:00am 6.1 3.5 6.0 99 0.0 S 9 11 5 6 1019.2 1017.8 0.0
21/02:30am 5.6 2.9 5.5 99 0.0 SSE 9 9 5 5 1019.0 1017.6 0.0
21/02:00am 5.8 2.7 5.7 99 0.0 SSE 11 13 6 7 1019.1 1017.7 0.0
21/01:30am 5.7 4.7 5.6 99 0.0 CALM 0 0 0 0 1019.7 1018.4 0.0
21/01:00am 5.1 2.8 4.8 98 0.1 N 6 7 3 4 1019.7 1018.4 0.0
21/12:30am 5.8 3.5 5.5 98 0.1 N 7 9 4 5 1019.8 1018.5 0.0
21/12:00am 7.4 5.2 6.2 92 0.6 S 7 9 4 5 1019.6 1018.3 0.0
 
Date/Time
EDT
Temp
°C
App
Temp
°C
Dew
Point
°C
Rel
Hum
%
Delta-T
°C
Wind Press
QNH
hPa
Press
MSL
hPa
Rain since
9am
mm
Dir  Spd
km/h
Gust
km/h
Spd
kts
Gust
kts
20/11:30pm 8.1 5.8 5.6 84 1.2 SSW 7 9 4 5 1019.5 1018.2 0.0
20/11:00pm 9.3 6.7 5.9 79 1.6 SSW 9 13 5 7 1019.4 1018.1 0.0
20/10:30pm 9.8 7.5 5.6 75 2.0 SSW 7 9 4 5 1019.5 1018.2 0.0
20/10:00pm 10.3 7.6 5.5 72 2.2 SSW 9 13 5 7 1019.1 1017.7 0.0
20/09:30pm 10.9 7.8 5.4 69 2.6 SSW 11 13 6 7 1018.8 1017.4 0.0
20/09:00pm 11.8 8.2 5.2 64 3.1 SSW 13 20 7 11 1018.4 1017.0 0.0
20/08:30pm 12.4 8.8 4.9 60 3.5 SSW 13 19 7 10 1017.8 1016.5 0.0
20/08:00pm 13.6 8.5 4.2 53 4.4 SSW 20 32 11 17 1017.3 1016.0 0.0
20/07:30pm 14.5 9.3 3.6 48 5.1 SSW 20 33 11 18 1016.9 1015.5 0.0
20/07:00pm 14.7 9.7 3.8 48 5.1 SW 19 32 10 17 1016.7 1015.3 0.0
20/06:30pm 15.0 9.6 4.4 49 5.0 SW 22 37 12 20 1016.4 1015.0 0.0
20/06:00pm 16.5 11.5 3.6 42 6.1 SW 19 28 10 15 1015.9 1014.5 0.0
20/05:30pm 16.3 11.6 5.0 47 5.5 SW 19 30 10 16 1015.5 1014.2 0.0
20/05:00pm 15.8 10.3 3.9 45 5.6 SW 22 37 12 20 1015.4 1014.1 0.0
20/04:30pm 16.0 10.6 4.4 46 5.6 SSW 22 33 12 18 1015.1 1013.7 0.0
20/04:00pm 16.4 11.4 4.8 46 5.6 SW 20 33 11 18 1014.9 1013.5 0.0
20/03:30pm 16.9 11.4 3.9 42 6.2 SSW 22 35 12 19 1014.7 1013.3 0.0
20/03:00pm 16.5 11.4 6.1 50 5.2 WSW 22 33 12 18 1014.6 1013.2 0.0
20/02:30pm 15.9 10.8 4.0 45 5.6 SW 20 32 11 17 1014.9 1013.5 0.0
20/02:00pm 16.5 10.2 3.9 43 6.0 WSW 26 37 14 20 1014.7 1013.3 0.0
20/01:30pm 16.6 11.0 3.7 42 6.1 SW 22 39 12 21 1014.8 1013.4 0.0
20/01:00pm 15.1 9.2 3.9 47 5.3 SW 24 37 13 20 1014.8 1013.4 0.0
20/12:30pm 15.7 9.9 4.4 47 5.4 SW 24 37 13 20 1014.9 1013.5 0.0
20/12:00pm 14.2 8.9 6.8 61 3.7 SW 24 35 13 19 1015.0 1013.6 0.0
20/11:30am 14.3 9.9 7.4 63 3.5 SW 20 35 11 19 1015.1 1013.7 0.0
20/11:00am 13.6 8.7 6.9 64 3.3 SW 22 39 12 21 1015.1 1013.7 0.0
20/10:30am 13.3 7.9 8.0 70 2.7 SW 26 37 14 20 1015.0 1013.6 0.0
20/10:00am 11.4 6.6 8.8 84 1.3 WSW 24 37 13 20 1014.8 1013.4 0.0
20/09:30am 11.1 7.3 9.7 91 0.7 SW 20 32 11 17 1014.6 1013.2 0.0
20/09:19am 10.8 7.2 10.5 98 0.2 SW 20 30 11 16 1014.6 1013.2 0.0
20/09:00am 9.9 6.1 9.8 99 0.1 WSW 20 30 11 16 1014.4 1013.0 4.0
20/08:30am 9.0 5.6 9.0 100 0.0 WSW 17 22 9 12 1014.1 1012.7 4.0
20/08:00am 8.5 4.9 8.5 100 0.0 WSW 17 22 9 12 1013.8 1012.4 4.0
20/07:30am 8.2 4.6 8.2 100 0.0 W 17 22 9 12 1013.3 1011.8 4.0
20/07:00am 8.1 5.2 8.1 100 0.0 WSW 13 19 7 10 1012.9 1011.5 4.0
20/06:30am 8.3 5.8 8.3 100 0.0 WSW 11 17 6 9 1012.5 1011.1 4.0
20/06:00am 8.2 5.3 8.2 100 0.0 WSW 13 20 7 11 1012.3 1010.9 4.0
20/05:30am 8.1 4.4 8.1 100 0.0 SW 17 24 9 13 1012.0 1010.6 4.0
20/05:00am 7.9 3.8 7.9 100 0.0 WSW 19 30 10 16 1011.9 1010.5 4.0
20/04:30am 7.8 3.7 7.8 100 0.0 WSW 19 28 10 15 1011.8 1010.4 4.0
20/04:00am 7.8 3.5 7.8 100 0.0 WSW 20 28 11 15 1011.8 1010.4 4.0
20/03:30am 8.0 3.4 8.0 100 0.0 WSW 22 32 12 17 1011.7 1010.3 4.0
20/03:00am 8.0 3.9 8.0 100 0.0 WSW 19 28 10 15 1011.6 1010.2 4.0
20/02:30am 8.1 3.9 8.1 100 0.0 WSW 20 28 11 15 1011.7 1010.3 4.0
20/02:00am 8.0 3.9 8.0 100 0.0 WSW 19 26 10 14 1011.8 1010.4 4.0
20/01:30am 7.7 3.9 7.7 100 0.0 WSW 17 24 9 13 1011.9 1010.5 4.0
20/01:00am 7.7 4.3 7.7 100 0.0 WSW 15 20 8 11 1012.0 1010.6 4.0
20/12:30am 7.9 3.8 7.8 99 0.0 WSW 19 28 10 15 1011.9 1010.5 4.0
20/12:00am 7.9 4.2 7.8 99 0.0 WSW 17 20 9 11 1012.0 1010.6 4.0
 
Date/Time
EDT
Temp
°C
App
Temp
°C
Dew
Point
°C
Rel
Hum
%
Delta-T
°C
Wind Press
QNH
hPa
Press
MSL
hPa
Rain since
9am
mm
Dir  Spd
km/h
Gust
km/h
Spd
kts
Gust
kts
19/11:45pm 7.9 4.2 7.8 99 0.0 WSW 17 20 9 11 1012.1 1010.7 4.0
19/11:30pm 7.8 4.0 7.7 99 0.0 WSW 17 22 9 12 1012.0 1010.6 4.0
19/11:00pm 7.8 4.4 7.5 98 0.1 WSW 15 20 8 11 1012.1 1010.7 3.8
19/10:30pm 7.8 4.4 7.5 98 0.1 WSW 15 20 8 11 1012.1 1010.7 3.8
19/10:00pm 7.7 4.6 7.4 98 0.1 WSW 13 17 7 9 1012.0 1010.6 3.8
19/09:30pm 8.3 4.6 8.0 98 0.1 WSW 17 24 9 13 1011.7 1010.3 3.8
19/09:00pm 8.6 4.9 8.0 96 0.3 WSW 17 22 9 12 1011.4 1010.0 3.8
19/08:30pm 8.4 4.3 6.4 87 0.9 WSW 17 22 9 12 1011.1 1009.6 3.8
19/08:00pm 9.2 3.8 6.5 83 1.3 W 24 32 13 17 1010.9 1009.4 3.8
19/07:30pm 10.2 4.7 5.8 74 2.1 SW 24 39 13 21 1010.2 1008.8 3.8
19/07:00pm 10.7 6.0 5.9 72 2.3 SW 20 33 11 18 1009.9 1008.5 3.8
19/06:30pm 11.5 5.9 5.4 66 2.9 SW 24 35 13 19 1009.7 1008.3 3.8
19/06:00pm 10.7 4.8 7.4 80 1.6 SW 28 50 15 27 1009.6 1008.2 3.8
19/05:53pm 10.7 4.2 6.3 74 2.1 SW 30 50 16 27 1009.6 1008.2 3.8
19/05:30pm 13.0 7.4 5.2 59 3.7 SW 24 32 13 17 1009.4 1008.0 3.8

Other Formats:

Comma delimited format used in spreadsheet applications
http://www.bom.gov.au/fwo/IDV60801/IDV60801.94852.axf

JavaScript Object Notation format (JSON) in row-major order
http://www.bom.gov.au/fwo/IDV60801/IDV60801.94852.json